sensor_id;sensor_type;location;lat;lon;timestamp;temperature;humidity
40848;DHT22;26570;50.962;5.340;2023-04-01T00:03:02;10.30;99.90
40848;DHT22;26570;50.962;5.340;2023-04-01T00:05:48;10.30;99.90
40848;DHT22;26570;50.962;5.340;2023-04-01T00:08:34;10.50;99.90
40848;DHT22;26570;50.962;5.340;2023-04-01T00:11:20;10.30;99.90
40848;DHT22;26570;50.962;5.340;2023-04-01T00:14:07;10.30;99.90
40848;DHT22;26570;50.962;5.340;2023-04-01T00:16:55;10.30;99.90
40848;DHT22;26570;50.962;5.340;2023-04-01T00:19:41;10.30;99.90
40848;DHT22;26570;50.962;5.340;2023-04-01T00:22:27;10.30;99.90
40848;DHT22;26570;50.962;5.340;2023-04-01T00:25:36;10.30;99.90
40848;DHT22;26570;50.962;5.340;2023-04-01T00:28:44;10.40;99.90
40848;DHT22;26570;50.962;5.340;2023-04-01T00:31:30;10.40;99.90
40848;DHT22;26570;50.962;5.340;2023-04-01T00:34:39;10.40;99.90
40848;DHT22;26570;50.962;5.340;2023-04-01T00:37:28;10.40;99.90
40848;DHT22;26570;50.962;5.340;2023-04-01T00:40:41;10.30;99.90
40848;DHT22;26570;50.962;5.340;2023-04-01T00:43:26;10.30;99.90
40848;DHT22;26570;50.962;5.340;2023-04-01T00:46:13;9.90;99.90
40848;DHT22;26570;50.962;5.340;2023-04-01T00:48:58;10.30;99.90
40848;DHT22;26570;50.962;5.340;2023-04-01T00:51:47;10.30;99.90
40848;DHT22;26570;50.962;5.340;2023-04-01T00:54:34;10.30;99.90
40848;DHT22;26570;50.962;5.340;2023-04-01T00:57:31;10.30;99.90
40848;DHT22;26570;50.962;5.340;2023-04-01T01:00:41;10.20;99.90
40848;DHT22;26570;50.962;5.340;2023-04-01T01:03:28;10.30;99.90
40848;DHT22;26570;50.962;5.340;2023-04-01T01:27:17;10.40;99.90
40848;DHT22;26570;50.962;5.340;2023-04-01T01:30:13;10.30;99.90
40848;DHT22;26570;50.962;5.340;2023-04-01T01:33:20;10.40;99.90
40848;DHT22;26570;50.962;5.340;2023-04-01T01:36:15;10.50;99.90
40848;DHT22;26570;50.962;5.340;2023-04-01T01:39:06;10.50;99.90
40848;DHT22;26570;50.962;5.340;2023-04-01T01:41:53;10.30;99.90
40848;DHT22;26570;50.962;5.340;2023-04-01T01:44:41;10.40;99.90
40848;DHT22;26570;50.962;5.340;2023-04-01T01:47:28;10.40;99.90
40848;DHT22;26570;50.962;5.340;2023-04-01T01:50:15;10.40;99.90
40848;DHT22;26570;50.962;5.340;2023-04-01T01:53:07;10.30;99.90
40848;DHT22;26570;50.962;5.340;2023-04-01T01:55:53;10.40;99.90
40848;DHT22;26570;50.962;5.340;2023-04-01T01:58:44;10.40;99.90
40848;DHT22;26570;50.962;5.340;2023-04-01T02:01:34;10.30;99.90
40848;DHT22;26570;50.962;5.340;2023-04-01T02:04:21;10.20;99.90
40848;DHT22;26570;50.962;5.340;2023-04-01T02:07:31;10.10;99.90
40848;DHT22;26570;50.962;5.340;2023-04-01T02:10:16;10.30;99.90
40848;DHT22;26570;50.962;5.340;2023-04-01T02:13:08;10.30;99.90
40848;DHT22;26570;50.962;5.340;2023-04-01T02:16:41;10.40;99.90
40848;DHT22;26570;50.962;5.340;2023-04-01T02:19:43;10.40;99.90
40848;DHT22;26570;50.962;5.340;2023-04-01T02:22:57;10.50;99.90
40848;DHT22;26570;50.962;5.340;2023-04-01T02:25:45;10.40;99.90
40848;DHT22;26570;50.962;5.340;2023-04-01T02:28:33;10.50;99.90
40848;DHT22;26570;50.962;5.340;2023-04-01T02:31:19;10.40;99.90
40848;DHT22;26570;50.962;5.340;2023-04-01T02:34:28;10.50;99.90
40848;DHT22;26570;50.962;5.340;2023-04-01T02:37:14;10.30;99.90
40848;DHT22;26570;50.962;5.340;2023-04-01T02:40:04;10.50;99.90
40848;DHT22;26570;50.962;5.340;2023-04-01T02:42:53;10.50;99.90
40848;DHT22;26570;50.962;5.340;2023-04-01T02:45:38;10.50;99.90
40848;DHT22;26570;50.962;5.340;2023-04-01T02:48:24;10.40;99.90
40848;DHT22;26570;50.962;5.340;2023-04-01T02:51:10;10.40;99.90
40848;DHT22;26570;50.962;5.340;2023-04-01T02:53:56;10.50;99.90
40848;DHT22;26570;50.962;5.340;2023-04-01T02:56:42;10.40;99.90
40848;DHT22;26570;50.962;5.340;2023-04-01T02:59:28;10.50;99.90
40848;DHT22;26570;50.962;5.340;2023-04-01T03:02:14;10.40;99.90
40848;DHT22;26570;50.962;5.340;2023-04-01T03:05:22;10.40;99.90
40848;DHT22;26570;50.962;5.340;2023-04-01T03:08:08;10.40;99.90
40848;DHT22;26570;50.962;5.340;2023-04-01T03:10:54;10.50;99.90
40848;DHT22;26570;50.962;5.340;2023-04-01T03:13:40;10.40;99.90
40848;DHT22;26570;50.962;5.340;2023-04-01T03:16:25;10.50;99.90
40848;DHT22;26570;50.962;5.340;2023-04-01T03:19:33;10.60;99.90
40848;DHT22;26570;50.962;5.340;2023-04-01T03:22:19;10.50;99.90
40848;DHT22;26570;50.962;5.340;2023-04-01T03:25:06;10.40;99.90
40848;DHT22;26570;50.962;5.340;2023-04-01T03:27:53;10.40;99.90
40848;DHT22;26570;50.962;5.340;2023-04-01T03:30:38;10.40;99.90
40848;DHT22;26570;50.962;5.340;2023-04-01T03:33:47;10.30;99.90
40848;DHT22;26570;50.962;5.340;2023-04-01T03:36:33;10.30;99.90
40848;DHT22;26570;50.962;5.340;2023-04-01T03:39:18;10.30;99.90
40848;DHT22;26570;50.962;5.340;2023-04-01T03:42:04;10.30;99.90
40848;DHT22;26570;50.962;5.340;2023-04-01T03:44:51;10.40;99.90
40848;DHT22;26570;50.962;5.340;2023-04-01T03:47:37;10.40;99.90
40848;DHT22;26570;50.962;5.340;2023-04-01T03:50:23;10.40;99.90
40848;DHT22;26570;50.962;5.340;2023-04-01T03:53:09;10.30;99.90
40848;DHT22;26570;50.962;5.340;2023-04-01T03:55:55;10.30;99.90
40848;DHT22;26570;50.962;5.340;2023-04-01T03:58:41;10.20;99.90
40848;DHT22;26570;50.962;5.340;2023-04-01T04:01:50;10.00;99.90
40848;DHT22;26570;50.962;5.340;2023-04-01T04:04:39;9.90;99.90
40848;DHT22;26570;50.962;5.340;2023-04-01T04:07:25;10.10;99.90
40848;DHT22;26570;50.962;5.340;2023-04-01T04:10:11;10.10;99.90
40848;DHT22;26570;50.962;5.340;2023-04-01T04:12:57;10.10;99.90
40848;DHT22;26570;50.962;5.340;2023-04-01T04:15:43;10.10;99.90
40848;DHT22;26570;50.962;5.340;2023-04-01T04:18:28;10.10;99.90
40848;DHT22;26570;50.962;5.340;2023-04-01T04:21:15;10.10;99.90
40848;DHT22;26570;50.962;5.340;2023-04-01T04:24:01;10.20;99.90
40848;DHT22;26570;50.962;5.340;2023-04-01T04:27:09;10.20;99.90
40848;DHT22;26570;50.962;5.340;2023-04-01T04:29:55;10.20;99.90
40848;DHT22;26570;50.962;5.340;2023-04-01T04:32:41;10.20;99.90
40848;DHT22;26570;50.962;5.340;2023-04-01T04:35:29;10.10;99.90
40848;DHT22;26570;50.962;5.340;2023-04-01T04:38:15;10.10;99.90
40848;DHT22;26570;50.962;5.340;2023-04-01T04:41:01;10.00;99.90
40848;DHT22;26570;50.962;5.340;2023-04-01T04:43:51;10.00;99.90
40848;DHT22;26570;50.962;5.340;2023-04-01T04:46:40;10.00;99.90
40848;DHT22;26570;50.962;5.340;2023-04-01T04:49:26;10.20;99.90
40848;DHT22;26570;50.962;5.340;2023-04-01T04:52:12;10.20;99.90
40848;DHT22;26570;50.962;5.340;2023-04-01T04:54:57;10.10;99.90
40848;DHT22;26570;50.962;5.340;2023-04-01T04:57:43;10.00;99.90
40848;DHT22;26570;50.962;5.340;2023-04-01T05:00:28;10.10;99.90
40848;DHT22;26570;50.962;5.340;2023-04-01T05:03:14;10.10;99.90
40848;DHT22;26570;50.962;5.340;2023-04-01T05:06:00;10.10;99.90
40848;DHT22;26570;50.962;5.340;2023-04-01T05:08:46;10.10;99.90
40848;DHT22;26570;50.962;5.340;2023-04-01T05:11:33;10.10;99.90
40848;DHT22;26570;50.962;5.340;2023-04-01T05:14:21;10.20;99.90
40848;DHT22;26570;50.962;5.340;2023-04-01T05:17:11;10.10;99.90
40848;DHT22;26570;50.962;5.340;2023-04-01T05:20:00;10.10;99.90
40848;DHT22;26570;50.962;5.340;2023-04-01T05:22:46;10.00;99.90
40848;DHT22;26570;50.962;5.340;2023-04-01T05:25:32;10.10;99.90
40848;DHT22;26570;50.962;5.340;2023-04-01T05:28:18;10.00;99.90
40848;DHT22;26570;50.962;5.340;2023-04-01T05:31:05;10.10;99.90
40848;DHT22;26570;50.962;5.340;2023-04-01T05:33:55;10.10;99.90
40848;DHT22;26570;50.962;5.340;2023-04-01T05:36:40;10.20;99.90
40848;DHT22;26570;50.962;5.340;2023-04-01T05:39:26;10.20;99.90
40848;DHT22;26570;50.962;5.340;2023-04-01T05:42:15;10.10;99.90
40848;DHT22;26570;50.962;5.340;2023-04-01T05:45:23;10.20;99.90
40848;DHT22;26570;50.962;5.340;2023-04-01T05:48:09;10.40;99.90
40848;DHT22;26570;50.962;5.340;2023-04-01T05:50:58;10.30;99.90
40848;DHT22;26570;50.962;5.340;2023-04-01T05:53:44;10.20;99.90
40848;DHT22;26570;50.962;5.340;2023-04-01T05:56:29;10.20;99.90
40848;DHT22;26570;50.962;5.340;2023-04-01T05:59:15;10.20;99.90
40848;DHT22;26570;50.962;5.340;2023-04-01T06:02:05;10.20;99.90
40848;DHT22;26570;50.962;5.340;2023-04-01T06:08:05;10.10;99.90
40848;DHT22;26570;50.962;5.340;2023-04-01T06:17:12;10.10;99.90
40848;DHT22;26570;50.962;5.340;2023-04-01T06:23:43;10.00;99.90
40848;DHT22;26570;50.962;5.340;2023-04-01T06:33:28;10.00;99.90
40848;DHT22;26570;50.962;5.340;2023-04-01T06:36:39;10.20;99.90
40848;DHT22;26570;50.962;5.340;2023-04-01T06:46:16;9.90;99.90
40848;DHT22;26570;50.962;5.340;2023-04-01T06:56:00;10.10;99.90
40848;DHT22;26570;50.962;5.340;2023-04-01T06:59:05;10.20;99.90
40848;DHT22;26570;50.962;5.340;2023-04-01T07:02:43;10.20;99.90
40848;DHT22;26570;50.962;5.340;2023-04-01T07:05:54;10.00;99.90
40848;DHT22;26570;50.962;5.340;2023-04-01T07:08:43;10.00;99.90
40848;DHT22;26570;50.962;5.340;2023-04-01T07:11:31;10.00;99.90
40848;DHT22;26570;50.962;5.340;2023-04-01T07:17:27;10.20;99.90
40848;DHT22;26570;50.962;5.340;2023-04-01T07:20:25;10.10;99.90
40848;DHT22;26570;50.962;5.340;2023-04-01T07:23:36;10.00;99.90
40848;DHT22;26570;50.962;5.340;2023-04-01T07:26:24;10.00;99.90
40848;DHT22;26570;50.962;5.340;2023-04-01T07:29:12;10.00;99.90
40848;DHT22;26570;50.962;5.340;2023-04-01T07:41:32;10.40;99.90
40848;DHT22;26570;50.962;5.340;2023-04-01T07:57:23;10.30;99.90
40848;DHT22;26570;50.962;5.340;2023-04-01T08:00:18;10.30;99.90
40848;DHT22;26570;50.962;5.340;2023-04-01T08:06:25;10.40;99.90
40848;DHT22;26570;50.962;5.340;2023-04-01T08:23:38;10.10;99.90
40848;DHT22;26570;50.962;5.340;2023-04-01T08:29:31;10.60;99.90
40848;DHT22;26570;50.962;5.340;2023-04-01T08:32:37;10.20;99.90
40848;DHT22;26570;50.962;5.340;2023-04-01T08:35:54;10.20;99.90
40848;DHT22;26570;50.962;5.340;2023-04-01T08:48:04;10.30;99.90
40848;DHT22;26570;50.962;5.340;2023-04-01T09:01:34;10.50;99.90
40848;DHT22;26570;50.962;5.340;2023-04-01T09:19:52;10.70;99.90
40848;DHT22;26570;50.962;5.340;2023-04-01T09:29:02;10.70;99.90
40848;DHT22;26570;50.962;5.340;2023-04-01T09:34:55;10.80;99.90
40848;DHT22;26570;50.962;5.340;2023-04-01T09:38:00;10.80;99.90
40848;DHT22;26570;50.962;5.340;2023-04-01T09:41:02;11.10;99.90
40848;DHT22;26570;50.962;5.340;2023-04-01T09:44:04;11.10;99.90
40848;DHT22;26570;50.962;5.340;2023-04-01T09:54:07;11.50;99.90
40848;DHT22;26570;50.962;5.340;2023-04-01T10:08:03;11.20;99.90
40848;DHT22;26570;50.962;5.340;2023-04-01T10:35:51;11.40;99.90
40848;DHT22;26570;50.962;5.340;2023-04-01T10:41:58;11.50;99.90
40848;DHT22;26570;50.962;5.340;2023-04-01T10:45:35;11.60;99.90
40848;DHT22;26570;50.962;5.340;2023-04-01T11:17:30;11.20;99.90
40848;DHT22;26570;50.962;5.340;2023-04-01T11:27:14;11.40;99.90
40848;DHT22;26570;50.962;5.340;2023-04-01T12:21:06;11.60;99.90
40848;DHT22;26570;50.962;5.340;2023-04-01T12:30:30;11.70;99.90
40848;DHT22;26570;50.962;5.340;2023-04-01T12:36:59;11.80;99.90
40848;DHT22;26570;50.962;5.340;2023-04-01T12:47:03;11.80;99.90
40848;DHT22;26570;50.962;5.340;2023-04-01T12:55:45;11.70;99.90
40848;DHT22;26570;50.962;5.340;2023-04-01T13:08:41;11.40;99.90
40848;DHT22;26570;50.962;5.340;2023-04-01T13:27:44;11.90;99.90
40848;DHT22;26570;50.962;5.340;2023-04-01T13:40:13;12.00;99.90
40848;DHT22;26570;50.962;5.340;2023-04-01T13:43:08;11.90;99.90
40848;DHT22;26570;50.962;5.340;2023-04-01T13:58:55;11.60;99.90
40848;DHT22;26570;50.962;5.340;2023-04-01T14:09:03;11.50;99.90
40848;DHT22;26570;50.962;5.340;2023-04-01T14:12:02;11.80;99.90
40848;DHT22;26570;50.962;5.340;2023-04-01T14:15:14;11.60;99.90
40848;DHT22;26570;50.962;5.340;2023-04-01T14:21:38;11.50;99.90
40848;DHT22;26570;50.962;5.340;2023-04-01T14:35:11;11.40;99.90
40848;DHT22;26570;50.962;5.340;2023-04-01T14:37:55;11.40;99.90
40848;DHT22;26570;50.962;5.340;2023-04-01T14:47:46;11.40;99.90
40848;DHT22;26570;50.962;5.340;2023-04-01T14:50:46;11.50;99.90
40848;DHT22;26570;50.962;5.340;2023-04-01T14:53:36;11.50;99.90
40848;DHT22;26570;50.962;5.340;2023-04-01T14:56:42;11.50;99.90
40848;DHT22;26570;50.962;5.340;2023-04-01T14:59:28;11.50;99.90
40848;DHT22;26570;50.962;5.340;2023-04-01T15:02:45;11.50;99.90
40848;DHT22;26570;50.962;5.340;2023-04-01T15:05:49;11.60;99.90
40848;DHT22;26570;50.962;5.340;2023-04-01T15:18:12;11.50;99.90
40848;DHT22;26570;50.962;5.340;2023-04-01T15:27:15;11.00;99.90
40848;DHT22;26570;50.962;5.340;2023-04-01T15:30:21;11.10;99.90
40848;DHT22;26570;50.962;5.340;2023-04-01T15:33:49;11.20;99.90
40848;DHT22;26570;50.962;5.340;2023-04-01T15:40:15;11.40;99.90
40848;DHT22;26570;50.962;5.340;2023-04-01T15:43:39;11.50;99.90
40848;DHT22;26570;50.962;5.340;2023-04-01T15:46:48;11.70;99.90
40848;DHT22;26570;50.962;5.340;2023-04-01T15:49:36;11.80;99.90
40848;DHT22;26570;50.962;5.340;2023-04-01T15:53:10;11.90;99.90
40848;DHT22;26570;50.962;5.340;2023-04-01T15:56:40;11.90;99.90
40848;DHT22;26570;50.962;5.340;2023-04-01T15:59:38;11.80;99.90
40848;DHT22;26570;50.962;5.340;2023-04-01T16:11:57;11.70;99.90
40848;DHT22;26570;50.962;5.340;2023-04-01T16:21:37;11.60;99.90
40848;DHT22;26570;50.962;5.340;2023-04-01T16:27:53;11.80;99.90
40848;DHT22;26570;50.962;5.340;2023-04-01T16:46:35;10.90;99.90
40848;DHT22;26570;50.962;5.340;2023-04-01T16:52:36;10.90;99.90
40848;DHT22;26570;50.962;5.340;2023-04-01T16:58:40;10.90;99.90
40848;DHT22;26570;50.962;5.340;2023-04-01T17:01:51;11.00;99.90
40848;DHT22;26570;50.962;5.340;2023-04-01T17:04:43;10.90;99.90
40848;DHT22;26570;50.962;5.340;2023-04-01T17:10:45;10.50;99.90
40848;DHT22;26570;50.962;5.340;2023-04-01T17:13:44;10.70;99.90
40848;DHT22;26570;50.962;5.340;2023-04-01T17:16:53;10.80;99.90
40848;DHT22;26570;50.962;5.340;2023-04-01T17:23:00;10.50;99.90
40848;DHT22;26570;50.962;5.340;2023-04-01T17:29:22;10.30;99.90
40848;DHT22;26570;50.962;5.340;2023-04-01T17:44:18;10.30;99.90
40848;DHT22;26570;50.962;5.340;2023-04-01T17:47:31;10.40;99.90
40848;DHT22;26570;50.962;5.340;2023-04-01T17:53:55;10.20;99.90
40848;DHT22;26570;50.962;5.340;2023-04-01T17:57:03;10.10;99.90
40848;DHT22;26570;50.962;5.340;2023-04-01T18:09:35;10.10;99.90
40848;DHT22;26570;50.962;5.340;2023-04-01T18:12:45;10.20;99.90
40848;DHT22;26570;50.962;5.340;2023-04-01T18:28:48;10.10;99.90
40848;DHT22;26570;50.962;5.340;2023-04-01T18:31:38;10.10;99.90
40848;DHT22;26570;50.962;5.340;2023-04-01T18:40:50;10.10;99.90
40848;DHT22;26570;50.962;5.340;2023-04-01T18:47:03;10.00;99.90
40848;DHT22;26570;50.962;5.340;2023-04-01T18:56:36;10.30;99.90
40848;DHT22;26570;50.962;5.340;2023-04-01T18:59:52;10.30;99.90
40848;DHT22;26570;50.962;5.340;2023-04-01T19:02:58;10.20;99.90
40848;DHT22;26570;50.962;5.340;2023-04-01T19:05:52;10.10;99.90
40848;DHT22;26570;50.962;5.340;2023-04-01T19:08:40;10.00;99.90
40848;DHT22;26570;50.962;5.340;2023-04-01T19:11:35;10.10;99.90
40848;DHT22;26570;50.962;5.340;2023-04-01T19:20:45;10.30;99.90
40848;DHT22;26570;50.962;5.340;2023-04-01T19:26:46;10.10;99.90
40848;DHT22;26570;50.962;5.340;2023-04-01T19:33:22;10.10;99.90
40848;DHT22;26570;50.962;5.340;2023-04-01T19:42:24;10.30;99.90
40848;DHT22;26570;50.962;5.340;2023-04-01T19:45:46;10.20;99.90
40848;DHT22;26570;50.962;5.340;2023-04-01T19:56:33;10.20;99.90
40848;DHT22;26570;50.962;5.340;2023-04-01T20:02:52;10.30;99.90
40848;DHT22;26570;50.962;5.340;2023-04-01T20:16:10;10.40;99.90
40848;DHT22;26570;50.962;5.340;2023-04-01T20:19:03;10.30;99.90
40848;DHT22;26570;50.962;5.340;2023-04-01T20:21:49;10.30;99.90
40848;DHT22;26570;50.962;5.340;2023-04-01T20:24:45;10.20;99.90
40848;DHT22;26570;50.962;5.340;2023-04-01T20:27:37;10.50;99.90
40848;DHT22;26570;50.962;5.340;2023-04-01T20:30:33;10.50;99.90
40848;DHT22;26570;50.962;5.340;2023-04-01T20:40:33;10.50;99.90
40848;DHT22;26570;50.962;5.340;2023-04-01T20:47:20;10.50;99.90
40848;DHT22;26570;50.962;5.340;2023-04-01T20:50:41;10.60;99.90
40848;DHT22;26570;50.962;5.340;2023-04-01T20:53:50;10.70;99.90
40848;DHT22;26570;50.962;5.340;2023-04-01T21:00:40;10.70;99.90
40848;DHT22;26570;50.962;5.340;2023-04-01T21:13:47;10.70;99.90
40848;DHT22;26570;50.962;5.340;2023-04-01T21:16:52;10.60;99.90
40848;DHT22;26570;50.962;5.340;2023-04-01T21:23:33;10.60;99.90
40848;DHT22;26570;50.962;5.340;2023-04-01T21:26:32;10.50;99.90
40848;DHT22;26570;50.962;5.340;2023-04-01T21:29:46;10.60;99.90
40848;DHT22;26570;50.962;5.340;2023-04-01T21:32:46;10.70;99.90
40848;DHT22;26570;50.962;5.340;2023-04-01T21:35:40;10.50;99.90
40848;DHT22;26570;50.962;5.340;2023-04-01T21:44:38;10.50;99.90
40848;DHT22;26570;50.962;5.340;2023-04-01T22:06:19;10.20;99.90
40848;DHT22;26570;50.962;5.340;2023-04-01T22:12:23;10.30;99.90
40848;DHT22;26570;50.962;5.340;2023-04-01T22:15:44;10.30;99.90
40848;DHT22;26570;50.962;5.340;2023-04-01T22:18:39;10.20;99.90
40848;DHT22;26570;50.962;5.340;2023-04-01T22:25:21;10.20;99.90
40848;DHT22;26570;50.962;5.340;2023-04-01T22:31:54;10.30;99.90
40848;DHT22;26570;50.962;5.340;2023-04-01T22:34:55;10.30;99.90
40848;DHT22;26570;50.962;5.340;2023-04-01T22:38:04;10.40;99.90
40848;DHT22;26570;50.962;5.340;2023-04-01T22:41:58;10.30;99.90
40848;DHT22;26570;50.962;5.340;2023-04-01T22:50:46;9.90;99.90
40848;DHT22;26570;50.962;5.340;2023-04-01T22:57:15;9.70;99.90
